Главная страница
METAR-TAF:

METAR-TAF

Аэропорты :

Clearfield-Lawrence Airport

Clearfield, Пенсильвания, США

широта: 41-02-48N, долгота: 078-24-42W, высота над уровнем моря: 462 м

Текущие метеонаблюдения

Эта сводка был подготовлена 27 минут назад, в 13:54 UTC
Ветер 6 Узел от южный-юго-западный
Температура 22°C
Влажность 83%
Давление 1015 hPa
Видимость: 16.1 км
Сплошная облачность на высоте 1900 фута

METAR: KFIG 211354Z AUTO 21006KT 10SM OVC019 22/19 A2997 RMK AO2 SLP140 T02170194

Время: 10:21 (14:21 UTC)


TAF: отсутствует

Метеонаблюдения и прогнозы для более 4000 аэропортов (сводки METAR и TAF).

Имеющиеся станции представлены на карте желтыми и красными точками.

Чтобы увидеть название станции, наведите на нее мышь.

Затем щелкните, чтобы увидеть метеонаблюдения и метеопрогнозы.

Управление картой: чтобы увеличить масштаб, щелкните зеленые кнопки с черным крестиком; чтобы уменьшить масштаб, щелкните зеленую кнопку с тире; для просмотра соседних карт щелкайте зеленые стрелки.


METAR-TAF: